Time;durP1;ratioP1;P1;durP2;ratioP2;P2;SDS_P1;SDS_P2;PMS_P1;PMS_P2;Temp;Humidity;BMP_temperature;BMP_pressure;BME280_temperature;BME280_humidity;BME280_pressure;Samples;Min_cycle;Max_cycle;Signal;HPM_P1;HPM_P2
2022/09/17 00:00:18;;;;;;;16.67;4.05;;;;;;;8.75;100.00;101357.56;5033172;28;20036;-74
2022/09/17 00:02:44;;;;;;;12.95;3.45;;;;;;;8.74;100.00;101355.84;5031990;28;20072;-74
2022/09/17 00:05:10;;;;;;;18.88;3.80;;;;;;;8.77;100.00;101366.22;5032867;28;20052;-74
2022/09/17 00:07:35;;;;;;;16.23;3.45;;;;;;;8.74;100.00;101361.88;5032585;28;20052;-73
2022/09/17 00:10:01;;;;;;;17.67;3.33;;;;;;;8.77;100.00;101371.41;5032119;28;20020;-74
2022/09/17 00:12:26;;;;;;;17.02;3.95;;;;;;;8.78;100.00;101375.72;5032378;28;20488;-74
2022/09/17 00:14:51;;;;;;;14.88;3.58;;;;;;;8.79;100.00;101374.84;5031895;28;20052;-74
2022/09/17 00:17:16;;;;;;;23.70;3.25;;;;;;;8.84;100.00;101380.88;5032775;28;20036;-73
2022/09/17 00:19:42;;;;;;;15.02;3.55;;;;;;;8.82;100.00;101374.81;5032671;28;20036;-73
2022/09/17 00:22:07;;;;;;;21.77;3.50;;;;;;;8.86;100.00;101382.59;5031913;28;20029;-73
2022/09/17 00:24:32;;;;;;;15.90;3.17;;;;;;;8.83;100.00;101379.16;5032339;28;20017;-73
2022/09/17 00:26:57;;;;;;;15.25;3.28;;;;;;;8.85;100.00;101383.47;5032542;28;20076;-73
2022/09/17 00:29:23;;;;;;;18.60;3.50;;;;;;;8.87;100.00;101373.06;5031893;28;20465;-74
2022/09/17 00:31:48;;;;;;;11.20;2.92;;;;;;;8.90;100.00;101373.03;5032712;28;20029;-74
2022/09/17 00:34:14;;;;;;;16.70;3.05;;;;;;;8.90;100.00;101376.50;5032660;28;20017;-74
2022/09/17 00:36:42;;;;;;;18.55;3.20;;;;;;;8.92;100.00;101381.66;5031498;28;20387;-73
2022/09/17 00:39:09;;;;;;;16.58;3.10;;;;;;;8.90;100.00;101379.09;5032604;28;20034;-74
2022/09/17 00:41:36;;;;;;;15.98;2.80;;;;;;;8.93;100.00;101375.63;5032133;28;20030;-74
2022/09/17 00:44:40;;;;;;;14.68;3.10;;;;;;;8.94;100.00;101384.28;5032007;28;20025;-73
2022/09/17 00:47:32;;;;;;;12.27;2.70;;;;;;;8.96;100.00;101395.50;5032604;28;20033;-74
2022/09/17 00:50:07;;;;;;;12.50;2.95;;;;;;;8.93;100.00;101380.81;5031480;28;20424;-74
2022/09/17 00:52:42;;;;;;;19.92;3.17;;;;;;;8.96;100.00;101387.69;5034054;28;20028;-74
2022/09/17 00:55:17;;;;;;;14.57;2.95;;;;;;;8.97;100.00;101387.72;5036403;28;20036;-74
2022/09/17 00:57:44;;;;;;;18.98;3.40;;;;;;;8.94;100.00;101386.88;5035217;28;20021;-73
2022/09/17 01:00:12;;;;;;;22.35;3.13;;;;;;;8.85;100.00;101373.06;5036607;28;20061;-74
2022/09/17 01:02:38;;;;;;;11.93;3.35;;;;;;;8.88;100.00;101387.78;5036242;28;20063;-73
2022/09/17 01:05:04;;;;;;;17.38;2.85;;;;;;;8.94;100.00;101399.88;5035528;28;20025;-73
2022/09/17 01:08:01;;;;;;;18.25;3.92;;;;;;;8.91;100.00;101395.56;5035782;28;20037;-74
2022/09/17 01:10:42;;;;;;;23.35;4.25;;;;;;;8.95;100.00;101391.19;5023653;28;20041;-74
2022/09/17 01:13:36;;;;;;;16.38;3.05;;;;;;;8.97;100.00;101395.50;5035350;28;20053;-73
2022/09/17 01:16:17;;;;;;;20.47;3.87;;;;;;;8.91;100.00;101386.00;5036278;28;20075;-74
2022/09/17 01:19:09;;;;;;;13.00;3.53;;;;;;;8.93;100.00;101393.81;5034813;28;20083;-73
2022/09/17 01:21:55;;;;;;;21.20;3.55;;;;;;;8.95;100.00;101397.25;5027212;28;20064;-73
2022/09/17 01:24:44;;;;;;;15.18;3.25;;;;;;;8.93;100.00;101396.41;5035426;28;20032;-73
2022/09/17 01:27:25;;;;;;;22.20;3.70;;;;;;;8.95;100.00;101405.06;5034899;28;20096;-74
2022/09/17 01:30:16;;;;;;;17.52;3.78;;;;;;;8.93;100.00;101404.22;5035927;28;20169;-74
2022/09/17 01:32:48;;;;;;;11.90;3.17;;;;;;;8.98;100.00;101412.84;5034793;28;20033;-73
2022/09/17 01:35:20;;;;;;;25.67;3.90;;;;;;;8.99;100.00;101411.97;5035703;28;20026;-74
2022/09/17 01:37:58;;;;;;;10.68;2.95;;;;;;;9.01;100.00;101412.81;5035309;28;20026;-74
2022/09/17 01:40:29;;;;;;;19.60;3.35;;;;;;;9.03;100.00;101410.22;5034694;28;20420;-74
2022/09/17 01:43:16;;;;;;;19.52;3.03;;;;;;;9.06;100.00;101411.06;5035414;28;20386;-73
2022/09/17 01:45:58;;;;;;;14.07;2.70;;;;;;;9.04;100.00;101410.19;5035242;28;20032;-73
2022/09/17 01:48:32;;;;;;;26.48;3.00;;;;;;;9.07;100.00;101410.16;5034273;28;20072;-74
2022/09/17 01:51:10;;;;;;;21.45;2.97;;;;;;;9.06;100.00;101418.84;5035137;28;20067;-73
2022/09/17 01:53:51;;;;;;;17.80;3.05;;;;;;;9.04;100.00;101419.72;5034255;28;20029;-73
2022/09/17 01:56:23;;;;;;;17.15;2.90;;;;;;;9.04;100.00;101422.34;5035196;28;20032;-73
2022/09/17 01:58:56;;;;;;;17.55;3.08;;;;;;;9.01;100.00;101411.94;5035573;28;20030;-73
2022/09/17 02:01:24;;;;;;;15.50;3.15;;;;;;;8.95;100.00;101412.84;5034189;28;20056;-73
2022/09/17 02:04:05;;;;;;;16.27;2.92;;;;;;;8.86;100.00;101415.50;5034304;28;20033;-73
2022/09/17 02:06:36;;;;;;;15.55;2.85;;;;;;;8.83;100.00;101418.16;5034754;28;20037;-74
2022/09/17 02:09:13;;;;;;;15.77;3.08;;;;;;;8.77;100.00;101413.00;5034171;28;20095;-73
2022/09/17 02:11:41;;;;;;;13.38;2.72;;;;;;;8.72;100.00;101419.97;5035024;28;20049;-74
2022/09/17 02:14:19;;;;;;;17.83;3.05;;;;;;;8.70;100.00;101408.69;5034948;28;20108;-73
2022/09/17 02:16:50;;;;;;;14.27;2.60;;;;;;;8.72;100.00;101410.41;5034674;28;20120;-73
2022/09/17 02:19:26;;;;;;;15.43;2.95;;;;;;;8.74;100.00;101413.03;5034801;28;20396;-73
2022/09/17 02:22:21;;;;;;;18.13;3.22;;;;;;;8.75;100.00;101417.34;5034116;28;20022;-73
2022/09/17 02:25:25;;;;;;;13.52;2.63;;;;;;;8.78;100.00;101414.72;5034681;28;20036;-74
2022/09/17 02:28:10;;;;;;;20.33;3.17;;;;;;;8.74;100.00;101407.81;4973595;28;20031;-74
2022/09/17 02:30:36;;;;;;;16.08;2.70;;;;;;;8.81;100.00;101417.31;4972649;28;20426;-74
2022/09/17 02:33:06;;;;;;;18.38;3.03;;;;;;;8.73;100.00;101425.16;5010216;28;20512;-74
2022/09/17 02:35:32;;;;;;;16.35;2.80;;;;;;;8.66;100.00;101426.94;5033765;28;20022;-73
2022/09/17 02:37:58;;;;;;;16.10;2.35;;;;;;;8.63;100.00;101426.97;5034647;28;20029;-73
2022/09/17 02:40:29;;;;;;;15.88;2.47;;;;;;;8.57;100.00;101429.59;5034033;28;20029;-73
2022/09/17 02:43:02;;;;;;;11.98;2.45;;;;;;;8.58;100.00;101439.09;5033766;28;20057;-73
2022/09/17 02:45:55;;;;;;;10.27;2.25;;;;;;;8.56;100.00;101440.84;5034165;28;20029;-74
2022/09/17 02:49:03;;;;;;;16.98;2.45;;;;;;;8.53;100.00;101435.66;5033929;28;20038;-74
2022/09/17 02:51:56;;;;;;;17.77;2.80;;;;;;;8.51;100.00;101439.16;5032749;28;20103;-73
2022/09/17 02:54:29;;;;;;;21.25;3.00;;;;;;;8.51;100.00;101446.94;5033679;28;20533;-73
2022/09/17 02:57:13;;;;;;;16.52;2.20;;;;;;;8.45;100.00;101440.03;5033043;28;20561;-73
2022/09/17 03:00:01;;;;;;;13.95;2.22;;;;;;;8.27;100.00;101437.50;5033805;28;20071;-73
2022/09/17 03:02:56;;;;;;;9.38;2.17;;;;;;;8.33;100.00;101445.25;5033838;28;20135;-73
2022/09/17 03:05:23;;;;;;;18.80;2.80;;;;;;;8.22;100.00;101440.13;5019267;28;20116;-74
2022/09/17 03:07:49;;;;;;;15.50;2.70;;;;;;;8.16;100.00;101438.41;5033778;28;20453;-73
2022/09/17 03:10:15;;;;;;;13.80;1.80;;;;;;;8.11;100.00;101428.88;5033932;28;20074;-73
2022/09/17 03:12:40;;;;;;;17.02;2.25;;;;;;;8.07;100.00;101438.44;5032834;28;20029;-74
2022/09/17 03:15:07;;;;;;;14.65;2.45;;;;;;;8.05;100.00;101440.19;5033464;28;20035;-73
2022/09/17 03:17:32;;;;;;;16.15;3.10;;;;;;;8.03;100.00;101436.72;5033011;28;20182;-73
2022/09/17 03:19:57;;;;;;;14.43;2.40;;;;;;;8.05;100.00;101431.53;5033052;28;20715;-73
2022/09/17 03:22:22;;;;;;;18.13;2.25;;;;;;;8.09;100.00;101434.09;5033222;28;20100;-73
2022/09/17 03:24:48;;;;;;;14.32;2.33;;;;;;;8.15;100.00;101435.81;5032796;28;20032;-74
2022/09/17 03:27:13;;;;;;;17.85;2.30;;;;;;;8.20;100.00;101434.06;5033505;28;20027;-73
2022/09/17 03:29:38;;;;;;;14.85;2.53;;;;;;;8.26;100.00;101430.56;5033531;28;20020;-74
2022/09/17 03:32:04;;;;;;;13.38;2.45;;;;;;;8.26;100.00;101431.44;5032702;28;20024;-73
2022/09/17 03:34:30;;;;;;;14.45;2.15;;;;;;;8.26;100.00;101431.44;5032904;28;20036;-73
2022/09/17 03:36:55;;;;;;;9.60;2.25;;;;;;;8.24;100.00;101424.50;5033512;28;20029;-73
2022/09/17 03:39:20;;;;;;;13.00;2.42;;;;;;;8.24;100.00;101429.72;5032343;28;20515;-73
2022/09/17 03:41:45;;;;;;;12.18;2.10;;;;;;;8.23;100.00;101428.84;5033280;28;20100;-73
2022/09/17 03:44:11;;;;;;;18.15;2.75;;;;;;;8.16;100.00;101430.59;5033424;28;20045;-73
2022/09/17 03:46:36;;;;;;;13.63;2.45;;;;;;;8.11;100.00;101428.88;5031973;28;20033;-73
2022/09/17 03:49:02;;;;;;;15.40;2.20;;;;;;;8.02;100.00;101428.94;5033069;28;20022;-74
2022/09/17 03:51:27;;;;;;;12.18;2.25;;;;;;;7.98;100.00;101425.50;5032674;28;20516;-74
2022/09/17 03:53:52;;;;;;;11.85;2.03;;;;;;;7.94;100.00;101439.34;5032471;28;20412;-73
2022/09/17 03:56:18;;;;;;;15.25;2.53;;;;;;;7.86;100.00;101436.78;5033162;28;20021;-73
2022/09/17 03:58:43;;;;;;;11.10;1.90;;;;;;;7.82;100.00;101436.81;5032728;28;20091;-74
2022/09/17 04:01:09;;;;;;;14.18;1.90;;;;;;;7.76;100.00;101436.81;5032251;28;20424;-74
2022/09/17 04:03:34;;;;;;;12.77;2.30;;;;;;;7.70;100.00;101435.09;5032522;28;20108;-73
2022/09/17 04:05:59;;;;;;;9.90;2.00;;;;;;;7.64;100.00;101441.16;5032724;28;20059;-73
2022/09/17 04:08:25;;;;;;;13.20;2.35;;;;;;;7.57;100.00;101436.84;5032126;28;20034;-73
2022/09/17 04:10:53;;;;;;;11.13;1.80;;;;;;;7.59;100.00;101442.91;5032757;28;20029;-74
2022/09/17 04:13:19;;;;;;;12.63;2.50;;;;;;;7.56;100.00;101442.91;5032855;28;20051;-73
2022/09/17 04:15:45;;;;;;;11.85;2.03;;;;;;;7.54;100.00;101442.03;5031902;28;20022;-74
2022/09/17 04:18:11;;;;;;;13.98;2.25;;;;;;;7.49;100.00;101444.66;5032690;28;20072;-74
2022/09/17 04:20:37;;;;;;;12.70;2.15;;;;;;;7.46;100.00;101448.97;5032771;28;20021;-73
2022/09/17 04:23:02;;;;;;;15.50;2.25;;;;;;;7.45;100.00;101455.88;5032085;28;20045;-73
2022/09/17 04:25:28;;;;;;;13.60;2.33;;;;;;;7.45;100.00;101447.22;5032548;28;20025;-73
2022/09/17 04:27:53;;;;;;;14.40;2.20;;;;;;;7.51;100.00;101455.00;5034520;28;20025;-73
2022/09/17 04:30:18;;;;;;;7.53;1.52;;;;;;;7.51;100.00;101449.81;5036770;28;20354;-73
2022/09/17 04:32:45;;;;;;;14.52;2.10;;;;;;;7.49;100.00;101452.44;5036352;28;20032;-73
2022/09/17 04:35:10;;;;;;;15.85;2.30;;;;;;;7.50;100.00;101453.28;5036213;28;20041;-73
2022/09/17 04:37:36;;;;;;;12.50;2.80;;;;;;;7.52;100.00;101448.97;5036339;28;20409;-73
2022/09/17 04:40:02;;;;;;;13.77;2.10;;;;;;;7.58;100.00;101454.13;5036571;28;20034;-73
2022/09/17 04:42:27;;;;;;;11.45;2.00;;;;;;;7.68;100.00;101455.88;5035569;28;20021;-73
2022/09/17 04:44:53;;;;;;;10.15;2.10;;;;;;;7.82;100.00;101465.34;5036473;28;20096;-73
2022/09/17 04:47:18;;;;;;;10.32;2.28;;;;;;;7.91;100.00;101463.59;5036437;28;20501;-74
2022/09/17 04:49:43;;;;;;;13.85;2.50;;;;;;;7.98;100.00;101477.44;5035572;28;20037;-73
2022/09/17 04:52:08;;;;;;;8.75;2.25;;;;;;;8.04;100.00;101467.00;5036098;28;20485;-74
2022/09/17 04:54:34;;;;;;;19.25;2.63;;;;;;;8.07;100.00;101455.75;5036033;28;20057;-74
2022/09/17 04:57:00;;;;;;;16.55;2.95;;;;;;;8.17;100.00;101447.94;5035525;28;20088;-75
2022/09/17 04:59:26;;;;;;;22.55;2.70;;;;;;;8.19;100.00;101447.91;5035967;28;20083;-76
2022/09/17 05:01:51;;;;;;;13.82;2.58;;;;;;;8.18;100.00;101447.06;5036098;28;20057;-76
2022/09/17 05:04:17;;;;;;;16.20;2.10;;;;;;;8.16;100.00;101453.97;5035622;28;20080;-75
2022/09/17 05:06:42;;;;;;;20.38;2.58;;;;;;;8.15;100.00;101454.88;5035903;28;20384;-74
2022/09/17 05:09:08;;;;;;;15.40;2.30;;;;;;;8.07;100.00;101471.34;5036297;28;20025;-75
2022/09/17 05:11:34;;;;;;;16.58;2.25;;;;;;;7.99;100.00;101466.16;5035011;28;20021;-74
2022/09/17 05:13:59;;;;;;;14.98;2.00;;;;;;;7.91;100.00;101461.00;5035961;28;20025;-74
2022/09/17 05:16:24;;;;;;;15.50;2.15;;;;;;;7.88;100.00;101473.09;5035681;28;20036;-74
2022/09/17 05:18:50;;;;;;;11.68;1.85;;;;;;;7.80;100.00;101473.13;5035527;28;20071;-74
2022/09/17 05:21:18;;;;;;;15.43;2.28;;;;;;;7.75;100.00;101480.09;5036184;28;20029;-74
2022/09/17 05:23:43;;;;;;;12.65;1.83;;;;;;;7.70;100.00;101477.47;5035737;28;20400;-74
2022/09/17 05:26:08;;;;;;;15.68;2.10;;;;;;;7.67;100.00;101468.84;5035050;28;20025;-74
2022/09/17 05:28:34;;;;;;;14.88;2.33;;;;;;;7.64;100.00;101487.84;5035326;28;20056;-74
2022/09/17 05:31:00;;;;;;;17.40;2.50;;;;;;;7.68;100.00;101484.41;5035386;28;20043;-74
2022/09/17 05:33:26;;;;;;;10.80;2.08;;;;;;;7.65;100.00;101494.81;5034561;28;20028;-74
2022/09/17 05:35:51;;;;;;;14.95;2.22;;;;;;;7.64;100.00;101494.78;5035485;28;20527;-73
2022/09/17 05:38:17;;;;;;;21.13;2.60;;;;;;;7.53;100.00;101481.81;5034728;28;20037;-74
2022/09/17 05:40:47;;;;;;;19.75;2.00;;;;;;;7.59;100.00;101497.41;5035230;28;20022;-74
2022/09/17 05:43:13;;;;;;;14.38;2.40;;;;;;;7.59;100.00;101489.63;5035570;28;20025;-74
2022/09/17 05:45:38;;;;;;;17.77;2.70;;;;;;;7.72;100.00;101474.91;5034222;28;20496;-73
2022/09/17 05:48:05;;;;;;;18.63;2.65;;;;;;;7.79;100.00;101487.00;5035403;28;20056;-74
2022/09/17 05:50:31;;;;;;;13.13;3.00;;;;;;;7.85;100.00;101483.53;5034943;28;20107;-74
2022/09/17 05:53:02;;;;;;;15.15;4.07;;;;;;;7.91;100.00;101491.28;5034629;28;20033;-74
2022/09/17 05:55:27;;;;;;;17.25;4.75;;;;;;;8.02;100.00;101496.47;5035013;28;20033;-74
2022/09/17 05:57:52;;;;;;;12.38;3.53;;;;;;;8.06;100.00;101500.78;5035161;28;20453;-74
2022/09/17 06:00:18;;;;;;;21.13;3.42;;;;;;;8.14;100.00;101506.78;5034350;28;20473;-73
2022/09/17 06:02:43;;;;;;;20.85;4.20;;;;;;;8.27;100.00;101513.69;5034960;28;20026;-74
2022/09/17 06:05:09;;;;;;;21.80;4.40;;;;;;;8.34;100.00;101523.22;5035176;28;20060;-74
2022/09/17 06:07:35;;;;;;;20.15;4.40;;;;;;;8.37;100.00;101525.81;5034066;28;20033;-74
2022/09/17 06:10:02;;;;;;;22.67;4.03;;;;;;;8.36;100.00;101526.66;5035084;28;20033;-74
2022/09/17 06:12:27;;;;;;;18.98;4.03;;;;;;;8.37;100.00;101524.91;5034542;28;20472;-74
2022/09/17 06:14:52;;;;;;;20.05;4.80;;;;;;;8.36;100.00;101525.78;5033949;28;20030;-74
2022/09/17 06:17:20;;;;;;;17.13;4.25;;;;;;;8.32;100.00;101535.31;5034843;28;20164;-74
2022/09/17 06:19:45;;;;;;;12.20;2.90;;;;;;;8.25;100.00;101530.16;5034884;28;20021;-74
2022/09/17 06:22:11;;;;;;;18.27;2.63;;;;;;;8.20;100.00;101524.97;5033820;28;20071;-74
2022/09/17 06:24:36;;;;;;;21.75;3.53;;;;;;;8.16;100.00;101529.31;5034400;28;20029;-74
2022/09/17 06:27:01;;;;;;;17.35;2.63;;;;;;;8.05;100.00;101520.69;5034529;28;20148;-73
2022/09/17 06:29:26;;;;;;;13.65;2.33;;;;;;;8.01;100.00;101523.28;5033648;28;20033;-74
2022/09/17 06:31:52;;;;;;;21.25;2.70;;;;;;;7.96;100.00;101523.31;5034752;28;20020;-74
2022/09/17 06:34:18;;;;;;;11.95;2.60;;;;;;;7.96;100.00;101521.56;5034871;28;20048;-73
2022/09/17 06:36:44;;;;;;;19.65;3.15;;;;;;;7.91;100.00;101525.91;5033535;28;20473;-73
2022/09/17 06:39:10;;;;;;;14.75;3.00;;;;;;;7.86;100.00;101519.00;5034540;28;20024;-73
2022/09/17 06:41:36;;;;;;;20.52;2.42;;;;;;;7.78;100.00;101499.94;5033306;28;20022;-74
2022/09/17 06:44:02;;;;;;;15.13;2.67;;;;;;;7.94;100.00;101528.47;5034144;28;20034;-73
2022/09/17 06:46:27;;;;;;;19.70;2.42;;;;;;;8.01;100.00;101518.97;5034041;28;20079;-74
2022/09/17 06:48:53;;;;;;;16.80;3.65;;;;;;;8.02;100.00;101512.91;5033553;28;20030;-74
2022/09/17 06:51:18;;;;;;;32.90;15.25;;;;;;;8.08;100.00;101525.88;5033470;28;20100;-73
2022/09/17 06:53:43;;;;;;;34.70;19.92;;;;;;;8.11;100.00;101522.38;5033991;28;20025;-73
2022/09/17 06:56:09;;;;;;;24.80;11.30;;;;;;;8.14;100.00;101515.47;5033327;28;20021;-74
2022/09/17 06:58:36;;;;;;;22.17;9.90;;;;;;;8.17;100.00;101522.38;5033699;28;20029;-74
2022/09/17 07:01:01;;;;;;;25.98;6.72;;;;;;;8.13;100.00;101503.34;5033898;28;20472;-73
2022/09/17 07:03:28;;;;;;;12.63;3.78;;;;;;;8.23;100.00;101519.75;5033091;28;20029;-74
2022/09/17 07:05:53;;;;;;;14.80;3.75;;;;;;;8.34;100.00;101522.34;5033772;28;20392;-74
2022/09/17 07:08:19;;;;;;;11.85;2.88;;;;;;;8.52;100.00;101519.69;5033881;28;20022;-73
2022/09/17 07:10:44;;;;;;;20.20;3.80;;;;;;;8.70;100.00;101517.88;5032962;28;20049;-74
2022/09/17 07:13:09;;;;;;;16.65;3.47;;;;;;;8.75;100.00;101527.38;5033616;28;20100;-74
2022/09/17 07:15:35;;;;;;;18.55;3.08;;;;;;;8.85;100.00;101529.06;5033684;28;20032;-73
2022/09/17 07:18:10;;;;;;;15.75;3.20;;;;;;;8.87;100.00;101534.28;5033042;28;20024;-73
2022/09/17 07:20:36;;;;;;;18.63;3.22;;;;;;;8.93;100.00;101521.25;5033532;28;20405;-74
2022/09/17 07:23:01;;;;;;;20.83;3.30;;;;;;;9.00;100.00;101530.72;5033595;28;20075;-74
2022/09/17 07:25:27;;;;;;;14.93;2.83;;;;;;;9.09;100.00;101529.78;5032463;28;20037;-74
2022/09/17 07:27:52;;;;;;;17.45;3.95;;;;;;;9.19;100.00;101538.41;5033492;28;20803;-74
2022/09/17 07:30:19;;;;;;;20.08;3.90;;;;;;;9.25;100.00;101533.16;5033587;28;20033;-74
2022/09/17 07:32:44;;;;;;;29.88;3.88;;;;;;;9.27;100.00;101528.81;5032622;28;20017;-74
2022/09/17 07:35:10;;;;;;;22.35;3.45;;;;;;;9.38;100.00;101537.41;5033279;28;20052;-74
2022/09/17 07:37:35;;;;;;;17.55;3.78;;;;;;;9.48;100.00;101522.56;5033047;28;20036;-76
2022/09/17 07:40:01;;;;;;;18.88;3.83;;;;;;;9.53;100.00;101513.84;5032584;28;20022;-76
2022/09/17 07:42:26;;;;;;;19.52;3.53;;;;;;;9.70;100.00;101515.44;5032888;28;20041;-76
2022/09/17 07:44:52;;;;;;;18.48;3.38;;;;;;;9.78;100.00;101524.06;5032551;28;20072;-76
2022/09/17 07:47:17;;;;;;;18.90;3.33;;;;;;;9.82;100.00;101516.19;5033374;28;20461;-76
2022/09/17 07:49:43;;;;;;;16.25;2.42;;;;;;;9.84;100.00;101516.16;5033094;28;20130;-76
2022/09/17 07:52:08;;;;;;;13.10;2.38;;;;;;;9.85;100.00;101524.00;5032068;28;20421;-76
2022/09/17 07:54:35;;;;;;;10.38;1.85;;;;;;;9.93;100.00;101526.50;5032736;28;20028;-76
2022/09/17 07:57:01;;;;;;;10.35;1.95;;;;;;;9.98;100.00;101522.13;5032942;28;20071;-77
2022/09/17 07:59:26;;;;;;;8.40;2.00;;;;;;;10.01;100.00;101523.84;5032388;28;20026;-77
2022/09/17 08:01:51;;;;;;;9.38;1.88;;;;;;;9.95;100.00;101527.38;5032381;28;20040;-77
2022/09/17 08:04:17;;;;;;;13.25;1.75;;;;;;;9.91;100.00;101517.88;5033291;28;20091;-81
2022/09/17 08:06:47;;;;;;;9.05;1.45;;;;;;;10.03;100.00;101522.94;5032123;28;20493;-76
2022/09/17 08:09:14;;;;;;;13.18;2.00;;;;;;;10.14;100.00;101514.16;5032803;28;20026;-76
2022/09/17 08:11:40;;;;;;;13.23;1.80;;;;;;;10.15;100.00;101521.94;5032594;28;20025;-77
2022/09/17 08:14:06;;;;;;;10.35;1.95;;;;;;;10.13;100.00;101513.28;5032293;28;20026;-77
2022/09/17 08:16:31;;;;;;;11.27;1.65;;;;;;;10.11;100.00;101522.00;5031187;28;20032;-74
2022/09/17 08:18:56;;;;;;;10.90;2.30;;;;;;;9.96;100.00;101518.66;5032843;28;20434;-74
2022/09/17 08:21:22;;;;;;;6.38;1.17;;;;;;;9.88;100.00;101528.31;5031628;28;20034;-74
2022/09/17 08:23:51;;;;;;;8.73;1.25;;;;;;;9.86;100.00;101530.06;5032634;28;20547;-74
2022/09/17 08:26:19;;;;;;;9.00;1.40;;;;;;;9.93;100.00;101525.66;5032568;28;20120;-74
2022/09/17 08:28:47;;;;;;;7.88;1.20;;;;;;;9.97;100.00;101522.13;5031586;28;20488;-74
2022/09/17 08:31:13;;;;;;;9.05;1.55;;;;;;;10.01;100.00;101529.91;5032780;28;20025;-74
2022/09/17 08:33:39;;;;;;;6.05;1.77;;;;;;;10.17;100.00;101516.69;5032393;28;20044;-74
2022/09/17 08:36:07;;;;;;;9.15;1.65;;;;;;;10.23;100.00;101516.63;5031822;28;20058;-74
2022/09/17 08:38:37;;;;;;;6.72;1.40;;;;;;;10.24;100.00;101536.63;5032242;28;20473;-74
2022/09/17 08:41:33;;;;;;;7.82;2.00;;;;;;;10.26;100.00;101529.66;5032368;28;20051;-74
2022/09/17 08:44:09;;;;;;;9.73;1.67;;;;;;;10.32;100.00;101527.84;5032793;28;20032;-74
2022/09/17 08:46:43;;;;;;;7.68;1.52;;;;;;;10.28;100.00;101528.78;5032167;28;20460;-74
2022/09/17 08:49:43;;;;;;;7.68;1.30;;;;;;;10.31;100.00;101535.72;5031558;28;20029;-74
2022/09/17 08:52:35;;;;;;;7.82;1.88;;;;;;;10.38;100.00;101539.97;5032247;28;20396;-74
2022/09/17 08:55:15;;;;;;;7.97;1.65;;;;;;;10.43;100.00;101546.00;5032601;28;20026;-73
2022/09/17 08:57:47;;;;;;;10.27;1.25;;;;;;;10.51;100.00;101530.25;5032392;28;20052;-74
2022/09/17 09:00:16;;;;;;;9.10;1.30;;;;;;;10.60;100.00;101534.50;5032709;28;20018;-74
2022/09/17 09:03:10;;;;;;;3.50;1.00;;;;;;;10.75;100.00;101539.50;5031423;28;20036;-74
2022/09/17 09:05:43;;;;;;;8.98;1.48;;;;;;;11.08;100.00;101538.19;5031886;28;20082;-74
2022/09/17 09:08:21;;;;;;;9.38;1.15;;;;;;;11.58;100.00;101533.09;5032495;28;20035;-73
2022/09/17 09:10:51;;;;;;;4.05;0.90;;;;;;;12.08;100.00;101541.81;5031648;28;20044;-74
2022/09/17 09:13:21;;;;;;;10.13;1.00;;;;;;;12.25;100.00;101537.13;5033621;28;20084;-74
2022/09/17 09:15:57;;;;;;;5.93;1.00;;;;;;;11.93;100.00;101553.38;5036049;28;20067;-74
2022/09/17 09:18:25;;;;;;;6.40;1.20;;;;;;;11.53;100.00;101545.34;5035269;28;20025;-74
2022/09/17 09:20:54;;;;;;;10.98;1.25;;;;;;;11.50;100.00;101548.84;5036033;28;20025;-74
2022/09/17 09:23:36;;;;;;;7.80;1.30;;;;;;;11.48;100.00;101546.28;5035294;28;20112;-74
2022/09/17 09:26:22;;;;;;;6.93;1.30;;;;;;;11.41;100.00;101544.66;5035911;28;20026;-74
2022/09/17 09:29:14;;;;;;;7.55;1.38;;;;;;;11.43;100.00;101542.88;5035950;28;20087;-74
2022/09/17 09:32:13;;;;;;;7.32;1.48;;;;;;;11.47;100.00;101549.75;5034847;28;20036;-74
2022/09/17 09:34:39;;;;;;;6.82;1.63;;;;;;;11.72;100.00;101536.31;5035238;28;20057;-74
2022/09/17 09:37:20;;;;;;;7.20;1.10;;;;;;;11.89;100.00;101546.50;5035466;28;20056;-74
2022/09/17 09:39:50;;;;;;;5.60;1.23;;;;;;;12.18;100.00;101540.75;5035556;28;20100;-74
2022/09/17 09:42:31;;;;;;;8.82;1.55;;;;;;;12.64;100.00;101535.44;5035518;28;20017;-74
2022/09/17 09:45:12;;;;;;;5.38;1.10;;;;;;;12.53;100.00;101544.44;5034782;28;20102;-74
2022/09/17 09:47:51;;;;;;;6.50;1.33;;;;;;;12.17;100.00;101541.66;5035377;28;20041;-73
2022/09/17 09:50:32;;;;;;;9.35;1.42;;;;;;;12.11;100.00;101544.38;5035356;28;20069;-73
2022/09/17 09:53:13;;;;;;;6.63;1.13;;;;;;;12.28;100.00;101537.06;5034380;28;20540;-74
2022/09/17 09:56:03;;;;;;;6.43;0.98;;;;;;;12.45;100.00;101546.31;5034944;28;20389;-73
2022/09/17 09:58:37;;;;;;;5.10;0.93;;;;;;;12.44;100.00;101537.63;5034316;28;20040;-73
2022/09/17 10:01:13;;;;;;;2.88;0.75;;;;;;;12.27;100.00;101548.41;5035225;28;20021;-73
2022/09/17 10:03:41;;;;;;;8.10;0.98;;;;;;;12.08;100.00;101549.66;5034827;28;20440;-73
2022/09/17 10:06:10;;;;;;;4.10;0.82;;;;;;;12.06;100.00;101548.81;5034067;28;20033;-73
2022/09/17 10:08:40;;;;;;;3.15;0.85;;;;;;;11.95;100.00;101535.94;5034914;28;20021;-73
2022/09/17 10:11:20;;;;;;;3.88;0.70;;;;;;;12.11;100.00;101552.22;5035055;28;20021;-73
2022/09/17 10:13:46;;;;;;;3.70;0.65;;;;;;;12.23;100.00;101538.03;5034273;28;20130;-73
2022/09/17 10:16:24;;;;;;;3.67;0.90;;;;;;;12.50;100.00;101541.88;5034726;28;20057;-73
2022/09/17 10:19:10;;;;;;;4.22;0.60;;;;;;;12.92;100.00;101534.88;5035043;28;20032;-74
2022/09/17 10:21:41;;;;;;;4.80;1.05;;;;;;;13.08;100.00;101546.72;5033457;28;20529;-74
2022/09/17 10:24:25;;;;;;;5.28;1.00;;;;;;;12.94;100.00;101548.75;5034461;28;20037;-73
2022/09/17 10:26:59;;;;;;;3.70;0.90;;;;;;;12.96;100.00;101540.91;5033686;28;20030;-73
2022/09/17 10:29:24;;;;;;;4.32;0.82;;;;;;;13.06;100.00;101545.88;5034509;28;20116;-73
2022/09/17 10:31:55;;;;;;;6.30;0.80;;;;;;;13.34;100.00;101533.06;5034669;28;20531;-73
2022/09/17 10:34:28;;;;;;;6.97;0.80;;;;;;;13.96;98.51;101527.13;5033771;28;20029;-73
2022/09/17 10:36:55;;;;;;;6.72;0.90;;;;;;;14.62;93.49;101527.94;5034357;28;20481;-73
2022/09/17 10:39:47;;;;;;;4.75;0.90;;;;;;;14.39;94.51;101520.69;5034058;28;20058;-73
2022/09/17 10:42:14;;;;;;;4.28;1.13;;;;;;;13.52;100.00;101541.34;5033919;28;20037;-73
2022/09/17 10:44:50;;;;;;;6.05;1.10;;;;;;;12.75;100.00;101553.56;5034098;28;20823;-74
2022/09/17 10:47:35;;;;;;;5.13;0.93;;;;;;;12.27;100.00;101548.41;5034142;28;20095;-74
2022/09/17 10:50:07;;;;;;;3.80;0.82;;;;;;;12.28;100.00;101546.66;5033255;28;20040;-74
2022/09/17 10:52:35;;;;;;;6.05;0.88;;;;;;;12.45;100.00;101554.16;5034171;28;20025;-73
2022/09/17 10:55:28;;;;;;;5.85;1.10;;;;;;;12.68;100.00;101546.72;5033508;28;20029;-73
2022/09/17 10:58:08;;;;;;;2.67;0.70;;;;;;;12.50;100.00;101554.94;5034140;28;20026;-73
2022/09/17 11:00:47;;;;;;;4.18;0.90;;;;;;;12.49;100.00;101545.34;5033823;28;20486;-73
2022/09/17 11:03:41;;;;;;;2.90;0.50;;;;;;;12.41;100.00;101541.16;5033357;28;20045;-73
2022/09/17 11:06:29;;;;;;;2.60;0.95;;;;;;;12.78;100.00;101550.00;5005373;28;20045;-73
2022/09/17 11:09:18;;;;;;;3.05;0.60;;;;;;;12.99;100.00;101541.69;5033437;28;20143;-73
2022/09/17 11:12:14;;;;;;;3.38;0.57;;;;;;;12.90;100.00;101534.03;5033545;28;20034;-73
2022/09/17 11:14:50;;;;;;;2.88;0.90;;;;;;;12.96;100.00;101536.53;5033562;28;20390;-74
2022/09/17 11:17:37;;;;;;;4.32;0.50;;;;;;;12.70;100.00;101534.47;5033238;28;20037;-73
2022/09/17 11:20:14;;;;;;;3.80;0.65;;;;;;;12.60;100.00;101527.72;5033928;28;20036;-73
2022/09/17 11:23:06;;;;;;;3.42;0.63;;;;;;;12.52;100.00;101524.38;5033488;28;20440;-74
2022/09/17 11:25:45;;;;;;;3.75;0.80;;;;;;;12.83;100.00;101525.47;5033573;28;20033;-73
2022/09/17 11:28:25;;;;;;;2.17;0.70;;;;;;;13.34;100.00;101512.09;5033591;28;20033;-73
2022/09/17 11:31:15;;;;;;;2.85;0.80;;;;;;;13.25;100.00;101535.88;5032939;28;20025;-73
2022/09/17 11:33:51;;;;;;;1.25;0.40;;;;;;;13.57;100.00;101522.00;5033196;28;20384;-73
2022/09/17 11:36:32;;;;;;;3.00;0.60;;;;;;;14.43;100.00;101513.59;5033412;28;20064;-73